createdAt,value
2023-03-27T00:04:18.653Z,995.86
2023-03-27T00:09:19.556Z,996.10
2023-03-27T00:14:23.549Z,996.26
2023-03-27T00:19:25.810Z,996.42
2023-03-27T00:24:29.982Z,996.54
2023-03-27T00:29:34.155Z,996.67
2023-03-27T00:34:38.301Z,996.83
2023-03-27T00:39:42.489Z,997.00
2023-03-27T00:44:46.597Z,997.04
2023-03-27T00:49:50.803Z,997.16
2023-03-27T00:54:54.986Z,997.28
2023-03-27T00:59:59.158Z,997.43
2023-03-27T01:05:03.283Z,997.41
2023-03-27T01:10:07.486Z,997.44
2023-03-27T01:15:11.596Z,997.44
2023-03-27T01:20:15.778Z,997.61
2023-03-27T01:25:19.954Z,997.71
2023-03-27T01:30:24.243Z,997.91
2023-03-27T01:35:28.303Z,997.99
2023-03-27T01:40:32.443Z,998.10
2023-03-27T01:45:36.632Z,998.11
2023-03-27T01:50:40.770Z,998.31
2023-03-27T01:55:44.948Z,998.34
2023-03-27T02:05:53.297Z,998.39
2023-03-27T02:10:55.747Z,998.41
2023-03-27T02:15:59.791Z,998.53
2023-03-27T02:21:01.986Z,998.57
2023-03-27T02:26:06.203Z,998.66
2023-03-27T02:31:33.669Z,998.65
2023-03-27T02:36:14.505Z,998.63
2023-03-27T02:41:18.686Z,998.75
2023-03-27T02:46:22.927Z,998.84
2023-03-27T02:56:31.321Z,998.98
2023-03-27T03:01:35.368Z,999.08
2023-03-27T03:06:39.495Z,999.11
2023-03-27T03:11:43.660Z,999.16
2023-03-27T03:16:47.870Z,999.24
2023-03-27T03:21:52.008Z,999.25
2023-03-27T03:26:56.150Z,999.30
2023-03-27T03:32:00.312Z,999.45
2023-03-27T03:37:04.505Z,999.55
2023-03-27T03:42:08.682Z,999.62
2023-03-27T03:52:16.958Z,999.64
2023-03-27T03:57:19.326Z,999.80
2023-03-27T04:02:30.557Z,999.92
2023-03-27T04:07:41.614Z,999.99
2023-03-27T04:12:52.764Z,1000.03
2023-03-27T04:18:04.025Z,1000.09
2023-03-27T04:23:15.143Z,1000.28
2023-03-27T04:28:24.408Z,1000.33
2023-03-27T04:33:30.612Z,1000.35
2023-03-27T04:38:32.744Z,1000.41
2023-03-27T04:43:37.036Z,1000.48
2023-03-27T04:48:41.067Z,1000.40
2023-03-27T04:53:45.241Z,1000.54
2023-03-27T04:58:49.404Z,1000.43
2023-03-27T05:03:53.566Z,1000.50
2023-03-27T05:08:57.742Z,1000.48
2023-03-27T05:14:01.868Z,1000.50
2023-03-27T05:19:06.024Z,1000.51
2023-03-27T05:24:10.244Z,1000.55
2023-03-27T05:29:14.429Z,1000.53
2023-03-27T05:34:18.591Z,1000.50
2023-03-27T05:39:22.727Z,1000.45
2023-03-27T05:44:26.892Z,1000.47
2023-03-27T05:49:32.412Z,1000.43
2023-03-27T05:54:35.223Z,1000.39
2023-03-27T05:59:39.407Z,1000.32
2023-03-27T06:04:43.609Z,1000.38
2023-03-27T06:09:47.724Z,1000.39
2023-03-27T06:14:49.994Z,1000.36
2023-03-27T06:19:54.158Z,1000.35
2023-03-27T06:24:58.353Z,1000.39
2023-03-27T06:30:00.604Z,1000.38
2023-03-27T06:35:04.756Z,1000.43
2023-03-27T06:40:08.946Z,1000.54
2023-03-27T06:45:13.106Z,1000.56
2023-03-27T06:50:17.266Z,1000.53
2023-03-27T06:55:21.423Z,1000.60
2023-03-27T07:00:25.599Z,1000.59
2023-03-27T07:05:29.762Z,1000.71
2023-03-27T07:10:33.938Z,1000.82
2023-03-27T07:15:38.085Z,1000.94
2023-03-27T07:20:42.279Z,1000.87
2023-03-27T07:25:46.449Z,1000.95
2023-03-27T07:30:50.598Z,1000.98
2023-03-27T07:35:54.932Z,1000.93
2023-03-27T07:40:58.926Z,1000.87
2023-03-27T07:46:03.170Z,1000.61
2023-03-27T07:51:13.760Z,1000.38
2023-03-27T07:56:11.405Z,1000.23
2023-03-27T08:01:15.579Z,999.85
2023-03-27T08:06:19.717Z,999.56
2023-03-27T08:11:30.593Z,999.60
2023-03-27T08:16:26.214Z,999.46
2023-03-27T08:21:30.356Z,999.40
2023-03-27T08:26:32.614Z,999.34
2023-03-27T08:31:36.780Z,999.43
2023-03-27T08:36:40.933Z,999.39
2023-03-27T08:41:45.140Z,999.34
2023-03-27T08:51:53.429Z,999.37
2023-03-27T08:56:57.598Z,999.35
2023-03-27T09:02:01.799Z,999.49
2023-03-27T09:07:05.911Z,999.51
2023-03-27T09:12:10.068Z,999.59
2023-03-27T09:17:14.261Z,999.48
2023-03-27T09:22:18.388Z,999.33
2023-03-27T09:27:22.585Z,999.21
2023-03-27T09:32:26.760Z,999.11
2023-03-27T09:37:30.848Z,999.12
2023-03-27T09:42:35.106Z,999.11
2023-03-27T09:47:39.263Z,999.11
2023-03-27T09:52:43.387Z,999.17
2023-03-27T09:57:47.523Z,999.28
2023-03-27T10:02:51.748Z,999.28
2023-03-27T10:07:55.866Z,999.33
2023-03-27T10:13:00.031Z,999.34
2023-03-27T10:18:02.324Z,999.35
2023-03-27T10:23:06.553Z,999.43
2023-03-27T10:28:08.802Z,999.54
2023-03-27T10:33:12.998Z,999.61
2023-03-27T10:38:17.201Z,999.85
2023-03-27T10:43:21.248Z,999.97
2023-03-27T10:48:25.413Z,999.96
2023-03-27T10:53:29.677Z,999.87
2023-03-27T11:03:37.846Z,1000.07
2023-03-27T11:08:41.974Z,1000.01
2023-03-27T11:13:46.115Z,1000.24
2023-03-27T11:18:50.338Z,1000.33
2023-03-27T11:23:54.511Z,1000.38
2023-03-27T11:28:58.620Z,1000.73
2023-03-27T11:34:02.766Z,1000.80
2023-03-27T11:39:06.954Z,1000.71
2023-03-27T11:44:11.104Z,1000.61
2023-03-27T11:49:15.259Z,1000.83
2023-03-27T11:54:19.532Z,1000.78
2023-03-27T11:59:23.586Z,1000.48
2023-03-27T12:04:27.741Z,1000.94
2023-03-27T12:09:31.950Z,1001.18
2023-03-27T12:19:40.248Z,1001.26
2023-03-27T12:24:57.172Z,1001.37
2023-03-27T12:29:46.648Z,1001.15
2023-03-27T12:34:48.969Z,1001.25
2023-03-27T12:39:53.144Z,1001.10
2023-03-27T12:44:59.467Z,1000.73
2023-03-27T12:50:01.410Z,1000.21
2023-03-27T12:55:05.587Z,1000.08
2023-03-27T13:00:09.789Z,999.98
2023-03-27T13:05:26.261Z,1000.39
2023-03-27T13:10:18.101Z,1000.44
2023-03-27T13:15:22.256Z,1000.73
2023-03-27T13:20:26.412Z,1000.93
2023-03-27T13:25:30.604Z,1001.04
2023-03-27T13:30:34.742Z,1001.20
2023-03-27T13:35:38.924Z,1001.40
2023-03-27T13:40:43.294Z,1001.55
2023-03-27T13:45:47.242Z,1002.06
2023-03-27T13:50:51.422Z,1002.65
2023-03-27T13:55:55.712Z,1002.97
2023-03-27T14:00:59.724Z,1002.95
2023-03-27T14:06:05.910Z,1002.94
2023-03-27T14:11:09.084Z,1002.81
2023-03-27T14:16:12.304Z,1002.74
2023-03-27T14:21:16.414Z,1002.65
2023-03-27T14:26:18.734Z,1002.53
2023-03-27T14:31:20.956Z,1002.44
2023-03-27T14:36:25.107Z,1002.11
2023-03-27T14:41:29.215Z,1001.72
2023-03-27T14:46:33.476Z,1001.48
2023-03-27T14:51:37.565Z,1001.27
2023-03-27T14:56:41.773Z,1001.05
2023-03-27T15:01:45.920Z,1000.90
2023-03-27T15:06:50.176Z,1001.01
2023-03-27T15:11:54.341Z,1001.10
2023-03-27T15:16:58.449Z,1001.18
2023-03-27T15:22:02.535Z,1001.56
2023-03-27T15:27:06.758Z,1001.79
2023-03-27T15:32:10.930Z,1002.30
2023-03-27T15:37:15.084Z,1002.52
2023-03-27T15:42:19.318Z,1002.71
2023-03-27T15:47:23.568Z,1002.83
2023-03-27T15:52:27.525Z,1003.03
2023-03-27T15:57:31.756Z,1003.26
2023-03-27T16:02:35.898Z,1002.70
2023-03-27T16:07:40.037Z,1002.72
2023-03-27T16:12:44.181Z,1002.96
2023-03-27T16:17:46.466Z,1003.00
2023-03-27T16:22:50.587Z,1003.01
2023-03-27T16:27:54.798Z,1003.16
2023-03-27T16:32:57.146Z,1002.91
2023-03-27T16:38:01.231Z,1002.68
2023-03-27T16:43:05.343Z,1002.49
2023-03-27T16:48:09.570Z,1002.07
2023-03-27T16:53:13.767Z,1002.14
2023-03-27T16:58:17.826Z,1002.24
2023-03-27T17:03:22.010Z,1002.33
2023-03-27T17:08:26.189Z,1002.51
2023-03-27T17:13:30.332Z,1002.56
2023-03-27T17:18:34.504Z,1002.63
2023-03-27T17:23:38.693Z,1002.74
2023-03-27T17:28:42.823Z,1002.80
2023-03-27T17:33:47.086Z,1002.84
2023-03-27T17:38:51.173Z,1002.90
2023-03-27T17:43:55.300Z,1002.92
2023-03-27T17:48:59.488Z,1003.07
2023-03-27T17:54:03.636Z,1003.16
2023-03-27T17:59:07.828Z,1003.24
2023-03-27T18:04:12.039Z,1003.29
2023-03-27T18:09:16.148Z,1003.37
2023-03-27T18:14:20.331Z,1003.45
2023-03-27T18:19:22.607Z,1003.55
2023-03-27T18:24:26.763Z,1003.63
2023-03-27T18:29:29.024Z,1003.77
2023-03-27T18:34:33.206Z,1003.84
2023-03-27T18:39:37.434Z,1003.96
2023-03-27T18:44:41.520Z,1004.07
2023-03-27T18:49:45.689Z,1004.23
2023-03-27T18:54:49.852Z,1004.53
2023-03-27T18:59:53.973Z,1004.80
2023-03-27T19:04:58.178Z,1004.95
2023-03-27T19:10:02.317Z,1005.15
2023-03-27T19:15:17.261Z,1005.42
2023-03-27T19:25:14.808Z,1005.84
2023-03-27T19:30:18.998Z,1005.97
2023-03-27T19:35:23.410Z,1006.00
2023-03-27T19:40:27.353Z,1006.03
2023-03-27T19:45:31.464Z,1006.09
2023-03-27T19:50:35.663Z,1006.06
2023-03-27T19:55:39.822Z,1006.11
2023-03-27T20:00:44.011Z,1006.13
2023-03-27T20:05:48.138Z,1006.18
2023-03-27T20:10:52.318Z,1006.21
2023-03-27T20:15:56.900Z,1006.09
2023-03-27T20:20:58.873Z,1006.08
2023-03-27T20:26:02.930Z,1006.07
2023-03-27T20:31:07.097Z,1006.10
2023-03-27T20:36:11.302Z,1006.14
2023-03-27T20:41:13.496Z,1006.16
2023-03-27T20:46:17.706Z,1006.17
2023-03-27T20:51:21.863Z,1006.23
2023-03-27T20:56:26.069Z,1006.30
2023-03-27T21:01:30.220Z,1006.36
2023-03-27T21:06:34.356Z,1006.46
2023-03-27T21:11:38.489Z,1006.45
2023-03-27T21:16:42.746Z,1006.69
2023-03-27T21:21:46.868Z,1006.82
2023-03-27T21:26:51.094Z,1007.00
2023-03-27T21:31:55.252Z,1007.15
2023-03-27T21:36:59.393Z,1007.23
2023-03-27T21:42:03.502Z,1007.30
2023-03-27T21:47:07.671Z,1007.47
2023-03-27T21:52:11.840Z,1007.54
2023-03-27T21:57:16.016Z,1007.66
2023-03-27T22:02:20.264Z,1007.85
2023-03-27T22:07:24.284Z,1008.02
2023-03-27T22:12:28.491Z,1008.17
2023-03-27T22:17:32.654Z,1008.27
2023-03-27T22:22:36.803Z,1008.40
2023-03-27T22:27:39.071Z,1008.41
2023-03-27T22:32:43.329Z,1008.57
2023-03-27T22:37:45.559Z,1008.76
2023-03-27T22:42:49.667Z,1008.84
2023-03-27T22:47:53.898Z,1008.92
2023-03-27T22:52:58.029Z,1009.11
2023-03-27T22:58:02.161Z,1009.10
2023-03-27T23:03:06.418Z,1009.23
2023-03-27T23:08:10.533Z,1009.30
2023-03-27T23:13:14.682Z,1009.34
2023-03-27T23:18:18.866Z,1009.40
2023-03-27T23:23:22.996Z,1009.42
2023-03-27T23:28:27.200Z,1009.47
2023-03-27T23:33:31.346Z,1009.51
2023-03-27T23:38:35.508Z,1009.56
2023-03-27T23:43:39.675Z,1009.57
2023-03-27T23:48:43.882Z,1009.54
2023-03-27T23:53:48.033Z,1009.59
2023-03-27T23:58:52.147Z,1009.54
